Airfield :
LOGIN :

Register | Disclaimer

   EN    FR    IT 

 










Legend :    VFR   Marginal VFR   IFR   Intensive IFR   Very Intensive IFR
Visi :
Ceiling :
>= 8 km
>= 3000ft
5 to 8 km
1000 to 3000 ft
1500m to 5 km
500 to 1000 ft
800 to 1500m
200 to 500 ft
< 800m
< 200 ft
Symbols :   Thunderstorms  Fog  Heavy snow  Heavy precipitations  Wind > 20 kt
SIGMETs :     Misc.  Thunderstorms  Icing  Turbulence  Mountain Waves  Volcanic Ashes







- Airport Elevation : 2731 ft
- IATA code : LPY
- Download approach charts


LFHP - Le Puy Loudes

CURRENT METAR :
  • 261100Z AUTO 36014KT 330V040 9999 FEW041 07/M04 Q1025

EXPIRED METARs :
  • 261030Z AUTO 01010KT 340V050 9999 FEW038 06/M02 Q1025
  • 261000Z AUTO 01014KT 340V040 9999 SCT034 06/M03 Q1026
  • 260930Z AUTO 01012KT 330V040 9999 BKN033 04/M04 Q1026
  • 260900Z AUTO 35010KT 9999 OVC028 04/M02 Q1026
  • 260830Z AUTO 34010KT 9999 OVC026 02/M03 Q1025

Expired Forecast.
No reported NOTAMs for that airfield.
3 SIGMETs reported for the Marseille FIR (LFMM) :
 
Severe turbulence
LFMM SIGMET 6 VALID 260800/261200 LFPW
LFMM MARSEILLE FIR/UIR SEV TURB FCST WI N4315 E00930 - N4315 E00945 - N4115 E00945 - N4115 E00900 - N4230 E00830 - N4315 E00930 SFC/FL090 STNR NC=
Severe turbulence
LFMM SIGMET 5 VALID 260800/261200 LFPW
LFMM MARSEILLE FIR/UIR SEV TURB FCST WI N4445 E00700 - N4400 E00700 - N4345 E00800 - N4345 E00630 - N4445 E00615 - N4445 E00700 SFC/FL140 STNR NC=
Severe turbulence
LFMM SIGMET 4 VALID 260800/261200 LFPW
LFMM MARSEILLE FIR/UIR SEV TURB FCST WI N4200 E00400 - N4215 E00230 - N4530 E00300 - N4500 E00545 - N4200 E00400 SFC/FL070 STNR NC=



MET'MAP, your aeronautical weather chart ! - Copyright ORBIFLY December 2007 - Disclaimer

ORBIFLY MET'MAP TEAM :

Programming & Development : Alexandra Zaïnal
Concept & Development : Baudouin d'Aumeries
Co-Development & Prog : Marc-Olivier Méhu
Technical & hardware support : Manuel Goepfert

Contact : metmap@orbifly.com




SOURCES & CREDITS :

   NOAA